Time;durP1;ratioP1;P1;durP2;ratioP2;P2;SDS_P1;SDS_P2;PMS_P1;PMS_P2;Temp;Humidity;BMP_temperature;BMP_pressure;BME280_temperature;BME280_humidity;BME280_pressure;Samples;Min_cycle;Max_cycle;Signal;HPM_P1;HPM_P2
2022/10/09 04:01:29;;;;;;;7.47;4.70;;;8.60;99.90;;;;;;5471440;23;20927;-74
2022/10/09 04:03:56;;;;;;;8.07;3.57;;;8.60;99.90;;;;;;4918627;29;20455;-74
2022/10/09 04:06:23;;;;;;;6.50;4.20;;;8.60;99.90;;;;;;4918693;29;20545;-74
2022/10/09 04:08:49;;;;;;;5.50;4.10;;;8.60;99.90;;;;;;4918499;29;20465;-74
2022/10/09 04:11:16;;;;;;;7.60;4.37;;;8.70;99.90;;;;;;4910049;29;20506;-74
2022/10/09 04:13:43;;;;;;;6.93;4.30;;;8.70;99.90;;;;;;4900479;29;20460;-75
2022/10/09 04:16:11;;;;;;;6.40;4.13;;;8.70;99.90;;;;;;4899639;29;20464;-75
2022/10/09 04:18:39;;;;;;;6.10;4.63;;;8.70;99.90;;;;;;4899472;29;20491;-73
2022/10/09 08:03:10;;;;;;;10.20;4.33;;;10.80;99.90;;;;;;5759236;23;20557;-77
2022/10/09 08:05:37;;;;;;;5.67;4.03;;;10.90;99.90;;;;;;4937784;29;20469;-77
2022/10/09 08:08:04;;;;;;;4.60;3.23;;;11.00;99.90;;;;;;4941677;29;20469;-77
2022/10/09 08:10:31;;;;;;;4.63;3.70;;;11.10;99.90;;;;;;4941910;29;20509;-77
2022/10/09 08:12:58;;;;;;;5.53;3.00;;;11.30;99.90;;;;;;4937824;29;20478;-77
2022/10/09 08:15:26;;;;;;;5.73;3.50;;;11.40;99.90;;;;;;4922355;29;20569;-77
2022/10/09 08:17:53;;;;;;;4.90;3.93;;;11.50;99.90;;;;;;4960277;23;20510;-74
2022/10/09 08:20:22;;;;;;;5.30;3.50;;;11.60;99.90;;;;;;4918122;29;20970;-74
2022/10/09 08:22:48;;;;;;;7.17;3.83;;;11.80;99.90;;;;;;4918358;29;20462;-74
2022/10/09 08:25:15;;;;;;;6.30;3.80;;;11.90;99.90;;;;;;4918178;29;20971;-74
2022/10/09 08:27:42;;;;;;;5.73;3.37;;;12.10;99.90;;;;;;4915210;29;20476;-75
2022/10/09 08:30:09;;;;;;;6.80;3.53;;;12.20;99.90;;;;;;4899306;29;20945;-74
2022/10/09 08:32:36;;;;;;;7.90;3.03;;;12.30;99.90;;;;;;4899488;29;20464;-75
2022/10/09 08:35:03;;;;;;;7.00;3.43;;;12.50;99.90;;;;;;4898989;29;20464;-74
2022/10/09 08:37:31;;;;;;;4.47;3.40;;;12.60;99.90;;;;;;4899114;29;20464;-78
2022/10/09 08:39:58;;;;;;;4.47;3.20;;;12.80;99.90;;;;;;4899208;29;20452;-78
2022/10/09 08:42:32;;;;;;;8.27;3.37;;;12.90;99.90;;;;;;4899062;29;20465;-75
2022/10/09 08:44:58;;;;;;;4.13;2.93;;;13.00;99.90;;;;;;4899184;29;20451;-75
2022/10/09 08:47:32;;;;;;;6.60;3.43;;;13.20;99.90;;;;;;4899053;29;20550;-75
2022/10/09 08:50:08;;;;;;;5.70;3.53;;;13.30;99.90;;;;;;4899033;29;20961;-76
2022/10/09 08:52:43;;;;;;;7.00;2.90;;;13.50;99.90;;;;;;4898869;29;20464;-76
2022/10/09 08:55:17;;;;;;;6.40;2.93;;;13.60;99.90;;;;;;4898808;29;20463;-75
2022/10/09 08:57:46;;;;;;;5.20;3.07;;;13.90;99.90;;;;;;4898603;29;20483;-75
2022/10/09 09:00:16;;;;;;;5.33;3.00;;;14.00;99.90;;;;;;4899273;29;20483;-75
2022/10/09 09:02:57;;;;;;;4.00;2.57;;;14.10;99.90;;;;;;4899017;29;20474;-74
2022/10/09 09:05:33;;;;;;;4.17;2.70;;;14.30;99.90;;;;;;4898811;29;20448;-75
2022/10/09 09:08:09;;;;;;;5.67;3.17;;;14.40;99.90;;;;;;4898616;29;20509;-75
2022/10/09 09:10:42;;;;;;;6.57;2.93;;;14.60;99.90;;;;;;4898693;29;20499;-74
2022/10/09 09:13:23;;;;;;;6.97;2.60;;;14.80;99.90;;;;;;4898619;29;20470;-78
2022/10/09 09:15:57;;;;;;;7.03;2.80;;;15.00;99.90;;;;;;4898457;29;20460;-74
2022/10/09 09:18:35;;;;;;;3.50;2.40;;;15.10;99.90;;;;;;4898561;29;20502;-74
2022/10/09 09:21:10;;;;;;;4.30;2.80;;;15.20;99.90;;;;;;4898720;29;20980;-74
2022/10/09 09:23:43;;;;;;;5.00;2.60;;;15.40;99.90;;;;;;4898588;29;20491;-74
2022/10/09 09:26:14;;;;;;;3.90;2.43;;;15.50;99.90;;;;;;4898163;29;20476;-74
2022/10/09 09:28:42;;;;;;;4.20;2.70;;;15.70;99.90;;;;;;4898252;29;20495;-74
2022/10/09 09:31:16;;;;;;;3.67;2.50;;;15.80;99.90;;;;;;4897989;29;20515;-74
2022/10/09 09:33:46;;;;;;;10.00;2.70;;;15.90;99.90;;;;;;4898600;29;20455;-74
2022/10/09 09:36:20;;;;;;;5.73;3.10;;;16.10;99.90;;;;;;4898598;29;20452;-75
2022/10/09 09:38:49;;;;;;;5.40;2.83;;;16.20;99.90;;;;;;4898389;29;20483;-74
2022/10/09 09:41:16;;;;;;;5.67;2.50;;;16.40;99.90;;;;;;4898422;29;20782;-75
2022/10/09 09:43:43;;;;;;;5.17;2.20;;;16.40;99.90;;;;;;4898284;29;20460;-74
2022/10/09 09:46:14;;;;;;;4.40;2.47;;;16.60;99.90;;;;;;4898006;29;20460;-74
2022/10/09 09:48:44;;;;;;;3.43;2.17;;;16.80;99.90;;;;;;4897571;29;20512;-74
2022/10/09 09:51:17;;;;;;;5.00;3.43;;;17.00;99.90;;;;;;4898051;29;20496;-74
2022/10/09 09:53:47;;;;;;;12.30;2.77;;;17.20;99.90;;;;;;4897700;29;20448;-75
2022/10/09 09:56:15;;;;;;;4.27;2.43;;;17.30;99.90;;;;;;4897939;29;20468;-75
2022/10/09 09:58:46;;;;;;;3.70;2.20;;;17.40;99.90;;;;;;4897720;29;20977;-74
2022/10/09 10:01:23;;;;;;;4.23;2.00;;;17.60;99.90;;;;;;4897874;29;20460;-78
2022/10/09 10:03:52;;;;;;;4.00;2.17;;;17.70;99.90;;;;;;4897768;29;20467;-74
2022/10/09 10:06:24;;;;;;;5.20;2.43;;;17.80;99.90;;;;;;4897801;29;20464;-79
2022/10/09 10:08:59;;;;;;;2.47;2.07;;;18.00;99.90;;;;;;4897812;29;20495;-75
2022/10/09 10:11:28;;;;;;;3.33;1.90;;;18.10;99.90;;;;;;4897414;29;21019;-74
2022/10/09 10:13:54;;;;;;;5.50;2.43;;;18.30;99.90;;;;;;4897761;29;20462;-74
2022/10/09 10:16:23;;;;;;;3.13;1.90;;;18.40;99.90;;;;;;4897202;29;20948;-77
2022/10/09 10:18:51;;;;;;;2.90;1.83;;;18.50;99.90;;;;;;4897383;29;20488;-75
2022/10/09 10:21:19;;;;;;;4.60;1.87;;;18.70;99.90;;;;;;4897511;29;20475;-77
2022/10/09 10:23:52;;;;;;;3.53;2.40;;;18.80;99.90;;;;;;4897541;29;20464;-75
2022/10/09 10:26:31;;;;;;;4.70;1.87;;;19.00;99.90;;;;;;4897380;29;20457;-75
2022/10/09 10:29:01;;;;;;;3.07;2.00;;;19.10;99.90;;;;;;4897464;29;20527;-80
2022/10/09 10:31:43;;;;;;;2.70;1.67;;;19.20;99.90;;;;;;4897486;29;20536;-75
2022/10/09 10:34:17;;;;;;;4.47;2.03;;;19.40;99.90;;;;;;4897207;29;20479;-76
2022/10/09 10:36:45;;;;;;;5.17;2.80;;;19.40;99.90;;;;;;4897248;29;20506;-80
2022/10/09 10:39:21;;;;;;;2.60;1.47;;;19.60;99.90;;;;;;4897314;29;20568;-79
2022/10/09 10:41:52;;;;;;;3.10;1.63;;;19.90;99.90;;;;;;4896863;29;20460;-77
2022/10/09 10:44:25;;;;;;;2.50;1.60;;;19.90;99.90;;;;;;4896905;29;20921;-75
2022/10/09 10:46:58;;;;;;;2.90;1.83;;;20.00;99.90;;;;;;4897160;29;20487;-79
2022/10/09 10:49:26;;;;;;;4.70;1.80;;;20.20;99.90;;;;;;4896948;29;20484;-75
2022/10/09 10:52:04;;;;;;;5.10;1.80;;;20.70;99.90;;;;;;4896887;29;20934;-74
2022/10/09 10:54:37;;;;;;;2.83;1.47;;;20.80;99.90;;;;;;4896296;29;20960;-76
2022/10/09 10:57:13;;;;;;;7.93;1.93;;;20.80;99.90;;;;;;4897121;29;20445;-75
2022/10/09 10:59:44;;;;;;;3.37;2.23;;;20.90;99.90;;;;;;4896807;29;20491;-75
2022/10/09 11:02:36;;;;;;;5.00;1.50;;;21.40;99.90;;;;;;4897180;29;20456;-78
2022/10/09 11:05:17;;;;;;;2.73;1.40;;;21.80;99.90;;;;;;4896756;29;20440;-75
2022/10/09 11:07:53;;;;;;;5.80;1.80;;;22.10;99.90;;;;;;4896658;29;20491;-75
2022/10/09 11:10:27;;;;;;;2.40;1.70;;;22.30;99.90;;;;;;4896751;29;20444;-75
2022/10/09 11:13:00;;;;;;;6.63;1.70;;;22.90;99.90;;;;;;4897043;29;20576;-74
2022/10/09 11:15:36;;;;;;;2.90;1.50;;;23.40;99.90;;;;;;4896620;29;20488;-77
2022/10/09 11:18:15;;;;;;;4.47;1.80;;;23.20;99.90;;;;;;4896727;29;20594;-78
2022/10/09 11:21:05;;;;;;;4.33;1.50;;;23.00;99.90;;;;;;4899441;29;20463;-75
2022/10/09 11:23:44;;;;;;;3.90;1.80;;;23.50;99.90;;;;;;4894183;29;20471;-80
2022/10/09 11:26:21;;;;;;;3.30;1.90;;;23.50;99.90;;;;;;4886172;29;20460;-75
2022/10/09 11:28:56;;;;;;;2.30;1.50;;;23.80;99.90;;;;;;4899642;29;20479;-75
2022/10/09 11:31:29;;;;;;;4.10;1.43;;;24.10;99.90;;;;;;4906391;29;20857;-77
2022/10/09 11:34:00;;;;;;;3.53;1.60;;;24.30;99.90;;;;;;4893535;29;20471;-78
2022/10/09 11:36:33;;;;;;;4.17;1.40;;;24.50;99.90;;;;;;4893380;29;20460;-76
2022/10/09 11:39:04;;;;;;;1.77;1.33;;;24.50;99.90;;;;;;4894833;29;20488;-75
2022/10/09 11:41:31;;;;;;;4.30;1.77;;;24.20;99.90;;;;;;4893291;29;20496;-74
2022/10/09 11:44:22;;;;;;;2.50;1.67;;;24.10;99.90;;;;;;4892329;29;20542;-77
2022/10/09 11:46:56;;;;;;;4.33;1.83;;;24.20;99.90;;;;;;4892400;29;20472;-76
2022/10/09 11:49:29;;;;;;;4.27;1.73;;;24.30;99.90;;;;;;4892305;29;20890;-76
2022/10/09 11:52:00;;;;;;;1.83;1.37;;;24.50;99.90;;;;;;4899277;29;20992;-75
2022/10/09 11:54:28;;;;;;;3.17;1.57;;;24.40;99.90;;;;;;4907513;29;20463;-74
2022/10/09 11:56:57;;;;;;;6.43;1.77;;;24.40;99.90;;;;;;4900241;29;20459;-74
2022/10/09 11:59:29;;;;;;;3.00;1.93;;;24.40;99.90;;;;;;4903156;29;20500;-74
2022/10/09 12:01:57;;;;;;;5.07;1.83;;;24.40;99.90;;;;;;4895944;29;20466;-74
2022/10/09 12:04:30;;;;;;;5.30;1.70;;;24.50;99.90;;;;;;4899979;29;20463;-73
2022/10/09 12:06:59;;;;;;;2.57;1.30;;;24.50;99.90;;;;;;4907987;29;21145;-74
2022/10/09 12:09:30;;;;;;;2.87;1.50;;;24.50;99.90;;;;;;4907678;29;20539;-74
2022/10/09 12:12:00;;;;;;;3.40;1.43;;;24.60;99.90;;;;;;4908666;29;20494;-73
2022/10/09 12:14:29;;;;;;;2.33;1.67;;;24.60;99.90;;;;;;4910570;29;20534;-73
2022/10/09 12:16:57;;;;;;;7.63;1.90;;;24.50;99.90;;;;;;4911524;29;20474;-73
2022/10/09 12:19:27;;;;;;;4.70;1.73;;;24.40;99.90;;;;;;4910905;29;21011;-76
2022/10/09 12:22:00;;;;;;;1.70;1.50;;;24.50;99.90;;;;;;4912138;29;20462;-75
2022/10/09 12:24:32;;;;;;;1.87;1.30;;;24.70;99.90;;;;;;4911017;29;20443;-74
2022/10/09 12:27:03;;;;;;;3.23;1.53;;;24.70;99.90;;;;;;4911101;29;20456;-74
2022/10/09 12:29:42;;;;;;;2.57;1.70;;;24.50;99.90;;;;;;4911212;29;20554;-74
2022/10/09 12:32:15;;;;;;;3.40;1.70;;;24.40;99.90;;;;;;4911036;29;21070;-74
2022/10/09 12:34:47;;;;;;;3.20;1.53;;;24.50;99.90;;;;;;4910486;29;20459;-73
2022/10/09 12:37:16;;;;;;;1.73;1.60;;;24.40;99.90;;;;;;4911054;29;20843;-74
2022/10/09 12:39:43;;;;;;;2.20;1.47;;;24.40;99.90;;;;;;4911280;29;20474;-74
2022/10/09 12:42:21;;;;;;;3.50;1.60;;;24.40;99.90;;;;;;4911906;29;20470;-76
2022/10/09 12:44:50;;;;;;;5.00;1.67;;;24.30;99.90;;;;;;4912241;29;20451;-76
2022/10/09 12:47:25;;;;;;;5.20;1.90;;;24.10;99.90;;;;;;4911839;29;20467;-77
2022/10/09 12:49:56;;;;;;;3.17;1.63;;;24.00;99.90;;;;;;4912211;29;20469;-77
2022/10/09 12:52:23;;;;;;;2.03;1.70;;;23.90;99.90;;;;;;4912002;29;20534;-77
2022/10/09 12:54:50;;;;;;;3.40;1.73;;;23.90;99.90;;;;;;4911368;29;20463;-77
2022/10/09 12:57:18;;;;;;;2.50;1.63;;;24.00;99.90;;;;;;4911623;29;20976;-77
2022/10/09 12:59:46;;;;;;;2.47;1.33;;;24.00;99.90;;;;;;4912388;29;20455;-77
2022/10/09 13:02:20;;;;;;;4.13;1.87;;;24.10;99.90;;;;;;4911976;29;20832;-76
2022/10/09 13:04:59;;;;;;;4.47;2.13;;;24.20;99.90;;;;;;4910744;29;20459;-76
2022/10/09 13:07:28;;;;;;;5.50;1.60;;;24.20;99.90;;;;;;4911870;29;20467;-77
2022/10/09 13:10:05;;;;;;;2.97;1.43;;;24.20;99.90;;;;;;4912112;29;20933;-78
2022/10/09 13:12:33;;;;;;;5.70;1.90;;;24.30;99.90;;;;;;4911968;29;20921;-78
2022/10/09 13:15:01;;;;;;;3.60;1.47;;;24.40;99.90;;;;;;4911903;29;20463;-76
2022/10/09 13:17:32;;;;;;;3.40;1.77;;;24.50;99.90;;;;;;4912226;29;20463;-76
2022/10/09 13:20:01;;;;;;;3.20;1.70;;;24.50;99.90;;;;;;4911960;29;21015;-78
2022/10/09 13:22:30;;;;;;;4.50;1.77;;;24.50;99.90;;;;;;4911810;29;20459;-76
2022/10/09 13:24:59;;;;;;;7.90;1.70;;;24.40;99.90;;;;;;4909970;29;20554;-76
2022/10/09 13:27:29;;;;;;;3.27;1.43;;;24.40;99.90;;;;;;4911689;29;20471;-78
2022/10/09 13:29:56;;;;;;;4.00;2.03;;;24.40;99.90;;;;;;4912035;29;20490;-75
2022/10/09 13:32:23;;;;;;;3.10;1.47;;;24.40;99.90;;;;;;4911793;29;20491;-76
2022/10/09 13:34:54;;;;;;;3.87;2.10;;;24.40;99.90;;;;;;4911790;29;20467;-81
2022/10/09 13:37:22;;;;;;;4.60;1.40;;;24.20;99.90;;;;;;4913845;29;20545;-77
2022/10/09 13:39:51;;;;;;;2.30;1.33;;;24.20;99.90;;;;;;4913804;29;20602;-76
2022/10/09 13:42:18;;;;;;;7.30;1.87;;;24.20;99.90;;;;;;4905768;29;20453;-76
2022/10/09 13:44:45;;;;;;;4.80;1.60;;;24.30;99.90;;;;;;4909758;29;20463;-76
2022/10/09 13:47:12;;;;;;;4.83;1.77;;;24.20;99.90;;;;;;4910353;29;20808;-76
2022/10/09 13:49:39;;;;;;;4.83;1.83;;;24.20;99.90;;;;;;4912791;29;20496;-76
2022/10/09 13:52:07;;;;;;;6.33;2.20;;;24.00;99.90;;;;;;4913077;29;20494;-76
2022/10/09 13:54:34;;;;;;;3.20;1.50;;;23.90;99.90;;;;;;4904646;29;20842;-76
2022/10/09 13:57:00;;;;;;;6.63;2.33;;;23.90;99.90;;;;;;4904425;29;20459;-75
2022/10/09 13:59:27;;;;;;;6.60;1.77;;;23.90;99.90;;;;;;4904287;29;20483;-80
2022/10/09 14:01:54;;;;;;;3.33;1.90;;;23.90;99.90;;;;;;4894205;29;20554;-75
2022/10/09 14:04:21;;;;;;;7.43;1.70;;;23.70;99.90;;;;;;4895142;29;20463;-77
2022/10/09 14:06:48;;;;;;;4.40;1.50;;;23.50;99.90;;;;;;4900287;29;20666;-76
2022/10/09 14:09:16;;;;;;;3.30;1.77;;;23.40;99.90;;;;;;4890772;29;20495;-76
2022/10/09 14:11:43;;;;;;;5.43;2.03;;;23.30;99.90;;;;;;4889759;29;20468;-76
2022/10/09 14:14:10;;;;;;;4.67;1.80;;;23.30;99.90;;;;;;4888776;29;20468;-76
2022/10/09 14:16:37;;;;;;;4.00;1.90;;;23.20;99.90;;;;;;4890138;29;20632;-77
2022/10/09 14:19:05;;;;;;;5.53;1.90;;;23.10;99.90;;;;;;4890625;29;20999;-76
2022/10/09 14:21:33;;;;;;;5.37;1.77;;;23.00;99.90;;;;;;4891018;29;20487;-76
2022/10/09 14:24:02;;;;;;;3.80;2.10;;;23.00;99.90;;;;;;4890549;29;20460;-77
2022/10/09 14:26:30;;;;;;;2.97;1.70;;;22.90;99.90;;;;;;4890852;29;20456;-75
2022/10/09 14:29:00;;;;;;;4.77;1.80;;;22.80;99.90;;;;;;4890366;29;20490;-76
2022/10/09 14:31:27;;;;;;;6.13;2.00;;;22.70;99.90;;;;;;4890782;29;20471;-75
2022/10/09 14:33:56;;;;;;;5.07;1.80;;;22.70;99.90;;;;;;4891318;29;20496;-80
2022/10/09 14:36:23;;;;;;;3.87;1.77;;;22.60;99.90;;;;;;4890822;29;20838;-76
2022/10/09 14:38:51;;;;;;;4.17;1.93;;;22.50;99.90;;;;;;4889729;29;20480;-76
2022/10/09 14:41:18;;;;;;;6.43;2.00;;;22.50;99.90;;;;;;4889717;29;20471;-77
2022/10/09 14:43:54;;;;;;;5.43;1.73;;;22.50;99.90;;;;;;4889870;29;20468;-75
2022/10/09 14:46:20;;;;;;;3.73;1.70;;;22.50;99.90;;;;;;4890235;29;20563;-77
2022/10/09 14:48:48;;;;;;;3.80;1.50;;;22.60;99.90;;;;;;4890611;29;20612;-76
2022/10/09 14:51:16;;;;;;;2.90;1.50;;;22.60;99.90;;;;;;4889472;29;20472;-76
2022/10/09 14:53:43;;;;;;;5.40;1.60;;;22.70;99.90;;;;;;4889721;29;20491;-76
2022/10/09 14:56:12;;;;;;;4.37;1.77;;;22.70;99.90;;;;;;4889747;29;20472;-76
2022/10/09 14:58:40;;;;;;;3.57;1.90;;;22.90;99.90;;;;;;4891472;29;20487;-80
2022/10/09 15:01:12;;;;;;;4.93;1.70;;;22.90;99.90;;;;;;4891444;29;20468;-77
2022/10/09 15:03:39;;;;;;;3.83;2.00;;;23.00;99.90;;;;;;4894506;29;20470;-76
2022/10/09 15:06:08;;;;;;;6.50;2.00;;;23.20;99.90;;;;;;4892936;29;20953;-75
2022/10/09 15:08:36;;;;;;;3.70;2.00;;;23.40;99.90;;;;;;4891783;29;20492;-74
2022/10/09 15:11:04;;;;;;;6.60;1.97;;;23.60;99.90;;;;;;4895476;29;20964;-75
2022/10/09 15:13:32;;;;;;;3.43;1.80;;;23.60;99.90;;;;;;4902279;29;20495;-75
2022/10/09 15:15:59;;;;;;;2.27;1.47;;;23.60;99.90;;;;;;4890104;29;20467;-78
2022/10/09 15:18:28;;;;;;;2.90;1.93;;;23.60;99.90;;;;;;4911328;29;20543;-74
2022/10/09 15:20:55;;;;;;;5.23;2.20;;;23.40;99.90;;;;;;4892710;29;20476;-75
2022/10/09 15:23:22;;;;;;;3.20;2.10;;;23.40;99.90;;;;;;4892559;29;20472;-78
2022/10/09 15:25:49;;;;;;;2.00;1.57;;;23.40;99.90;;;;;;4894097;29;20456;-77
2022/10/09 15:28:17;;;;;;;8.63;2.27;;;23.50;99.90;;;;;;4908937;29;20491;-78
2022/10/09 15:30:45;;;;;;;5.47;2.20;;;23.50;99.90;;;;;;4899935;29;20514;-75
2022/10/09 15:33:11;;;;;;;4.00;1.80;;;23.60;99.90;;;;;;4904847;29;20518;-74
2022/10/09 15:35:40;;;;;;;3.20;2.00;;;23.40;99.90;;;;;;4910312;29;20467;-75
2022/10/09 15:38:07;;;;;;;3.83;1.90;;;23.30;99.90;;;;;;4910348;29;20486;-74
2022/10/09 15:40:42;;;;;;;2.60;1.60;;;23.30;99.90;;;;;;4910297;29;21085;-76
2022/10/09 15:43:09;;;;;;;5.00;2.27;;;23.20;99.90;;;;;;4900298;29;20455;-75
2022/10/09 15:45:36;;;;;;;3.67;2.10;;;23.00;99.90;;;;;;4888671;29;20470;-75
2022/10/09 15:48:02;;;;;;;2.00;1.67;;;22.80;99.90;;;;;;4891467;29;20857;-77
2022/10/09 15:50:29;;;;;;;4.50;2.00;;;22.40;99.90;;;;;;4891947;29;20507;-76
2022/10/09 15:52:58;;;;;;;5.70;1.80;;;22.20;99.90;;;;;;4891125;29;20522;-76
2022/10/09 15:55:25;;;;;;;7.90;1.90;;;21.80;99.90;;;;;;4887324;29;20546;-72
2022/10/09 15:57:52;;;;;;;2.60;1.83;;;21.50;99.90;;;;;;4894064;29;20483;-73
2022/10/09 16:00:19;;;;;;;3.00;1.90;;;21.20;99.90;;;;;;4888071;29;20488;-77
2022/10/09 16:02:46;;;;;;;2.60;1.97;;;20.80;99.90;;;;;;4897433;29;20467;-74
2022/10/09 16:05:13;;;;;;;2.40;2.03;;;20.60;99.90;;;;;;4900771;29;20471;-73
2022/10/09 16:07:40;;;;;;;5.30;2.30;;;20.30;99.90;;;;;;4912055;29;20490;-76
2022/10/09 16:10:09;;;;;;;6.40;1.73;;;20.20;99.90;;;;;;4891791;29;20464;-76
2022/10/09 16:12:35;;;;;;;3.30;1.90;;;20.00;99.90;;;;;;4883251;29;20464;-76
2022/10/09 16:15:02;;;;;;;4.00;2.10;;;19.80;99.90;;;;;;4884950;29;20457;-74
2022/10/09 16:17:29;;;;;;;3.47;2.00;;;19.60;99.90;;;;;;4906619;29;20491;-78
2022/10/09 16:19:57;;;;;;;3.03;2.33;;;19.40;99.90;;;;;;4896697;29;20448;-76
2022/10/09 16:22:23;;;;;;;3.47;2.10;;;19.20;99.90;;;;;;4896874;29;20542;-76
2022/10/09 16:24:50;;;;;;;3.90;3.33;;;19.20;99.90;;;;;;4897001;29;20464;-77
2022/10/09 16:27:18;;;;;;;4.27;3.13;;;19.00;99.90;;;;;;4897418;29;20920;-77
2022/10/09 16:29:45;;;;;;;6.67;3.07;;;19.00;99.90;;;;;;4897401;29;20459;-78
2022/10/09 16:32:12;;;;;;;4.60;3.10;;;18.90;99.90;;;;;;4897524;29;20460;-72
2022/10/09 16:34:39;;;;;;;4.60;2.57;;;18.80;99.90;;;;;;4896795;29;20502;-78
2022/10/09 16:37:06;;;;;;;5.50;2.50;;;18.80;99.90;;;;;;4897061;29;20472;-75
2022/10/09 16:39:33;;;;;;;6.73;3.00;;;18.70;99.90;;;;;;4903848;29;21067;-77
2022/10/09 16:42:02;;;;;;;4.27;2.97;;;18.60;99.90;;;;;;4908267;29;20471;-74
2022/10/09 16:44:31;;;;;;;5.20;3.20;;;18.50;99.90;;;;;;4914262;29;20462;-77
2022/10/09 16:46:58;;;;;;;3.80;2.90;;;18.40;99.90;;;;;;4905896;29;20464;-76
2022/10/09 16:49:24;;;;;;;4.93;2.60;;;18.30;99.90;;;;;;4894281;29;20996;-75
2022/10/09 16:51:51;;;;;;;3.50;2.50;;;18.20;99.90;;;;;;4888945;29;20469;-77
2022/10/09 16:54:18;;;;;;;4.50;2.70;;;18.10;99.90;;;;;;4883858;29;20503;-77
2022/10/09 16:56:45;;;;;;;3.70;3.10;;;18.00;99.90;;;;;;4887005;29;20468;-75
2022/10/09 16:59:14;;;;;;;4.70;2.73;;;17.80;99.90;;;;;;4889340;29;20484;-77
2022/10/09 17:01:44;;;;;;;3.67;2.50;;;17.70;99.90;;;;;;4892825;29;20823;-76
2022/10/09 17:04:12;;;;;;;3.40;2.37;;;17.70;99.90;;;;;;4893001;29;20551;-77
2022/10/09 17:06:40;;;;;;;5.47;2.93;;;17.60;99.90;;;;;;4886296;29;20471;-71
2022/10/09 17:09:09;;;;;;;5.37;2.50;;;17.60;99.90;;;;;;4891917;29;20481;-72
2022/10/09 17:11:36;;;;;;;4.57;3.00;;;17.50;99.90;;;;;;4887111;29;20473;-75
2022/10/09 17:14:03;;;;;;;6.27;3.73;;;17.40;99.90;;;;;;4883470;29;20503;-76
2022/10/09 17:16:33;;;;;;;4.80;2.93;;;17.30;99.90;;;;;;4888359;29;20460;-76
2022/10/09 17:19:02;;;;;;;5.47;2.70;;;17.20;99.90;;;;;;4891578;29;20991;-74
2022/10/09 17:21:29;;;;;;;4.30;2.60;;;17.20;99.90;;;;;;4911507;29;20467;-76
2022/10/09 17:23:58;;;;;;;5.32;3.25;;;17.10;99.90;;;;;;4910196;29;20454;-76
2022/10/09 17:26:26;;;;;;;7.20;3.70;;;17.10;99.90;;;;;;4906251;29;20215;-75
2022/10/09 17:28:53;;;;;;;5.87;3.63;;;17.10;99.90;;;;;;4892758;29;20940;-72
2022/10/09 17:31:22;;;;;;;7.47;3.93;;;17.00;99.90;;;;;;4892558;29;20468;-75
2022/10/09 17:33:53;;;;;;;9.47;4.13;;;16.90;99.90;;;;;;4892324;29;20499;-76
2022/10/09 17:36:23;;;;;;;6.33;3.37;;;16.80;99.90;;;;;;4886478;29;20469;-76
2022/10/09 17:38:52;;;;;;;5.83;3.63;;;16.70;99.90;;;;;;4886851;29;20587;-77
2022/10/09 17:41:22;;;;;;;4.17;3.50;;;16.50;99.90;;;;;;4891316;29;20465;-76
2022/10/09 17:43:49;;;;;;;4.27;3.00;;;16.50;99.90;;;;;;4885036;29;20454;-76
2022/10/09 17:46:17;;;;;;;7.97;3.63;;;16.40;99.90;;;;;;4887065;29;20460;-77
2022/10/09 17:48:48;;;;;;;4.43;3.23;;;16.30;99.90;;;;;;4889550;29;20487;-76
2022/10/09 17:51:17;;;;;;;4.63;3.67;;;16.20;99.90;;;;;;4893565;29;20547;-75
2022/10/09 17:53:46;;;;;;;3.43;2.77;;;16.10;99.90;;;;;;4884651;29;20503;-76
2022/10/09 17:56:13;;;;;;;4.80;2.90;;;16.10;99.90;;;;;;4873027;29;20471;-74
2022/10/09 17:58:41;;;;;;;4.00;3.13;;;16.00;99.90;;;;;;4891214;29;21064;-72
2022/10/09 18:01:09;;;;;;;7.20;3.37;;;16.00;99.90;;;;;;4891611;29;21013;-75
2022/10/09 18:03:36;;;;;;;7.10;3.90;;;15.90;99.90;;;;;;4899466;29;20464;-75
2022/10/09 18:06:05;;;;;;;5.47;3.53;;;15.90;99.90;;;;;;4898598;29;20547;-74
2022/10/09 18:08:32;;;;;;;6.47;4.23;;;15.80;99.90;;;;;;4904883;29;21018;-75
2022/10/09 18:11:01;;;;;;;5.20;3.70;;;15.70;99.90;;;;;;4894979;29;20830;-72
2022/10/09 18:13:28;;;;;;;6.30;3.57;;;15.70;99.90;;;;;;4905123;29;20583;-75
2022/10/09 18:15:55;;;;;;;8.03;3.90;;;15.60;99.90;;;;;;4900879;29;20972;-75
2022/10/09 18:18:22;;;;;;;6.20;3.70;;;15.60;99.90;;;;;;4898927;29;20503;-75
2022/10/09 18:20:49;;;;;;;6.40;3.40;;;15.50;99.90;;;;;;4908967;29;20994;-73
2022/10/09 18:23:16;;;;;;;5.73;3.20;;;15.50;99.90;;;;;;4910867;29;20463;-76
2022/10/09 18:25:43;;;;;;;6.27;3.70;;;15.40;99.90;;;;;;4908082;29;20456;-75
2022/10/09 18:28:13;;;;;;;7.20;3.80;;;15.40;99.90;;;;;;4901717;29;20566;-73
2022/10/09 18:30:41;;;;;;;6.00;4.03;;;15.30;99.90;;;;;;4889964;29;20894;-73
2022/10/09 18:33:09;;;;;;;5.40;3.37;;;15.20;99.90;;;;;;4890201;29;20471;-73
2022/10/09 18:35:36;;;;;;;6.97;3.87;;;15.20;99.90;;;;;;4889709;29;21029;-73
2022/10/09 18:38:03;;;;;;;6.13;4.10;;;15.20;99.90;;;;;;4889792;29;20578;-73
2022/10/09 18:40:30;;;;;;;6.17;4.00;;;15.10;99.90;;;;;;4890054;29;20539;-73
2022/10/09 18:42:57;;;;;;;8.63;3.93;;;15.00;99.90;;;;;;4889576;29;20495;-73
2022/10/09 18:45:25;;;;;;;5.90;3.93;;;15.00;99.90;;;;;;4889788;29;20465;-75
2022/10/09 18:47:52;;;;;;;6.00;4.10;;;15.00;99.90;;;;;;4890733;29;20494;-75
2022/10/09 18:50:19;;;;;;;4.40;3.60;;;15.00;99.90;;;;;;4890307;29;20460;-74
2022/10/09 18:52:45;;;;;;;4.83;3.30;;;14.90;99.90;;;;;;4890295;29;20468;-73
2022/10/09 18:55:16;;;;;;;8.70;4.60;;;14.90;99.90;;;;;;4883815;29;20869;-75
2022/10/09 18:57:44;;;;;;;8.30;4.37;;;14.80;99.90;;;;;;4888881;29;20483;-75
2022/10/09 19:00:12;;;;;;;5.90;3.93;;;14.80;99.90;;;;;;4889740;29;20495;-75
2022/10/09 19:02:43;;;;;;;9.47;4.77;;;14.80;99.90;;;;;;4889629;29;21132;-75
2022/10/09 19:05:10;;;;;;;6.50;4.30;;;14.80;99.90;;;;;;4889167;29;20465;-75
2022/10/09 19:07:37;;;;;;;5.83;4.27;;;14.70;99.90;;;;;;4889068;29;20500;-77
2022/10/09 19:10:06;;;;;;;5.77;4.30;;;14.70;99.90;;;;;;4889384;29;20855;-75
2022/10/09 19:12:33;;;;;;;8.07;4.67;;;14.60;99.90;;;;;;4889964;29;20522;-73
2022/10/09 19:15:00;;;;;;;6.27;4.33;;;14.60;99.90;;;;;;4889205;29;20582;-76
2022/10/09 19:17:27;;;;;;;8.37;5.00;;;14.50;99.90;;;;;;4889363;29;20579;-76
2022/10/09 19:19:55;;;;;;;7.57;5.83;;;14.40;99.90;;;;;;4889157;29;20468;-76
2022/10/09 19:22:24;;;;;;;7.10;5.47;;;14.40;99.90;;;;;;4891044;29;20499;-77
2022/10/09 19:24:50;;;;;;;8.90;5.70;;;14.40;99.90;;;;;;4892563;29;20459;-72
2022/10/09 19:27:17;;;;;;;9.73;5.17;;;14.40;99.90;;;;;;4893341;29;20470;-77
2022/10/09 19:29:44;;;;;;;6.60;5.63;;;14.30;99.90;;;;;;4893594;29;20498;-75
2022/10/09 19:32:11;;;;;;;8.47;4.67;;;14.30;99.90;;;;;;4893551;29;20463;-76
2022/10/09 19:34:38;;;;;;;12.73;5.40;;;14.20;99.90;;;;;;4892768;29;20499;-76
2022/10/09 19:37:06;;;;;;;5.67;5.07;;;14.20;99.90;;;;;;4894338;29;20468;-75
2022/10/09 19:39:33;;;;;;;8.73;4.73;;;14.20;99.90;;;;;;4893296;29;20494;-75
2022/10/09 19:41:59;;;;;;;5.90;4.20;;;14.10;99.90;;;;;;4882929;29;20476;-75
2022/10/09 19:44:26;;;;;;;6.20;4.80;;;14.00;99.90;;;;;;4874750;29;20472;-76
2022/10/09 19:46:53;;;;;;;6.33;4.63;;;14.00;99.90;;;;;;4880087;29;20586;-74
2022/10/09 19:49:20;;;;;;;6.33;5.07;;;14.00;99.90;;;;;;4892563;29;20571;-74
2022/10/09 19:51:48;;;;;;;6.83;4.70;;;13.90;99.90;;;;;;4901307;29;20476;-76
2022/10/09 19:54:16;;;;;;;9.07;4.43;;;13.90;99.90;;;;;;4903155;29;20491;-76
2022/10/09 19:56:43;;;;;;;6.77;5.50;;;13.90;99.90;;;;;;4902144;29;20464;-75
2022/10/09 19:59:13;;;;;;;8.63;5.70;;;13.80;99.90;;;;;;4911355;29;20570;-77
2022/10/09 20:01:39;;;;;;;5.40;4.90;;;13.80;99.90;;;;;;4903296;29;21274;-75
2022/10/09 20:04:08;;;;;;;10.70;5.90;;;13.80;99.90;;;;;;4904830;29;20478;-76
2022/10/09 20:06:37;;;;;;;9.60;6.30;;;13.70;99.90;;;;;;4907009;29;20456;-75
2022/10/09 20:09:05;;;;;;;9.30;5.37;;;13.70;99.90;;;;;;4893465;29;20480;-74
2022/10/09 20:11:34;;;;;;;7.50;5.57;;;13.70;99.90;;;;;;4900509;29;20470;-76
2022/10/09 20:14:01;;;;;;;8.53;5.23;;;13.60;99.90;;;;;;4897459;29;20529;-75
2022/10/09 20:16:30;;;;;;;7.23;4.80;;;13.60;99.90;;;;;;4909904;29;20466;-75
2022/10/09 20:18:58;;;;;;;10.47;5.93;;;13.60;99.90;;;;;;4892962;29;20502;-76
2022/10/09 20:21:25;;;;;;;20.33;10.77;;;13.50;99.90;;;;;;4893196;29;20460;-74
2022/10/09 20:23:54;;;;;;;11.40;7.67;;;13.50;99.90;;;;;;4873719;29;20465;-74
2022/10/09 20:26:22;;;;;;;13.27;5.30;;;13.50;99.90;;;;;;4873244;29;20476;-74
2022/10/09 20:28:54;;;;;;;8.37;5.27;;;13.40;99.90;;;;;;4891961;29;20492;-73
2022/10/09 20:31:23;;;;;;;9.40;5.50;;;13.40;99.90;;;;;;4891791;29;20478;-75
2022/10/09 20:33:50;;;;;;;7.43;4.60;;;13.30;99.90;;;;;;4896586;29;20883;-75
2022/10/09 20:36:21;;;;;;;9.00;4.80;;;13.30;99.90;;;;;;4909062;29;20459;-74
2022/10/09 20:38:48;;;;;;;5.60;4.50;;;13.30;99.90;;;;;;4873022;29;20495;-73
2022/10/09 20:41:15;;;;;;;6.30;4.40;;;13.30;99.90;;;;;;4873544;29;20469;-74